sensor_id;sensor_type;location;lat;lon;timestamp;temperature;humidity
19516;DHT22;9901;47.448;7.692;2023-04-25T00:00:35;7.80;99.90
19516;DHT22;9901;47.448;7.692;2023-04-25T00:03:01;7.80;99.90
19516;DHT22;9901;47.448;7.692;2023-04-25T00:05:27;7.70;99.90
19516;DHT22;9901;47.448;7.692;2023-04-25T00:07:55;7.70;99.90
19516;DHT22;9901;47.448;7.692;2023-04-25T00:10:21;7.60;99.90
19516;DHT22;9901;47.448;7.692;2023-04-25T00:12:46;7.60;99.90
19516;DHT22;9901;47.448;7.692;2023-04-25T00:15:22;7.60;99.90
19516;DHT22;9901;47.448;7.692;2023-04-25T00:17:49;7.60;99.90
19516;DHT22;9901;47.448;7.692;2023-04-25T00:20:14;7.60;99.90
19516;DHT22;9901;47.448;7.692;2023-04-25T00:22:40;7.60;99.90
19516;DHT22;9901;47.448;7.692;2023-04-25T00:25:07;7.60;99.90
19516;DHT22;9901;47.448;7.692;2023-04-25T00:27:32;7.50;99.90
19516;DHT22;9901;47.448;7.692;2023-04-25T00:29:59;7.50;99.90
19516;DHT22;9901;47.448;7.692;2023-04-25T00:32:25;7.50;99.90
19516;DHT22;9901;47.448;7.692;2023-04-25T00:34:54;7.50;99.90
19516;DHT22;9901;47.448;7.692;2023-04-25T00:37:21;7.50;99.90
19516;DHT22;9901;47.448;7.692;2023-04-25T00:39:53;7.50;99.90
19516;DHT22;9901;47.448;7.692;2023-04-25T00:42:21;7.50;99.90
19516;DHT22;9901;47.448;7.692;2023-04-25T00:44:47;7.40;99.90
19516;DHT22;9901;47.448;7.692;2023-04-25T00:47:13;7.50;99.90
19516;DHT22;9901;47.448;7.692;2023-04-25T00:49:39;7.50;99.90
19516;DHT22;9901;47.448;7.692;2023-04-25T00:52:05;7.40;99.90
19516;DHT22;9901;47.448;7.692;2023-04-25T00:54:43;7.40;99.90
19516;DHT22;9901;47.448;7.692;2023-04-25T00:57:09;7.40;99.90
19516;DHT22;9901;47.448;7.692;2023-04-25T00:59:36;7.40;99.90
19516;DHT22;9901;47.448;7.692;2023-04-25T01:02:04;7.40;99.90
19516;DHT22;9901;47.448;7.692;2023-04-25T01:04:32;7.30;99.90
19516;DHT22;9901;47.448;7.692;2023-04-25T01:06:58;7.40;99.90
19516;DHT22;9901;47.448;7.692;2023-04-25T01:09:24;7.30;99.90
19516;DHT22;9901;47.448;7.692;2023-04-25T01:11:50;7.30;99.90
19516;DHT22;9901;47.448;7.692;2023-04-25T01:14:16;7.30;99.90
19516;DHT22;9901;47.448;7.692;2023-04-25T01:16:42;7.20;99.90
19516;DHT22;9901;47.448;7.692;2023-04-25T01:19:09;7.20;99.90
19516;DHT22;9901;47.448;7.692;2023-04-25T01:21:39;7.20;99.90
19516;DHT22;9901;47.448;7.692;2023-04-25T01:24:06;7.20;99.90
19516;DHT22;9901;47.448;7.692;2023-04-25T01:26:36;7.20;99.90
19516;DHT22;9901;47.448;7.692;2023-04-25T01:29:07;7.10;99.90
19516;DHT22;9901;47.448;7.692;2023-04-25T01:31:34;7.20;99.90
19516;DHT22;9901;47.448;7.692;2023-04-25T01:34:00;7.10;99.90
19516;DHT22;9901;47.448;7.692;2023-04-25T01:36:32;7.20;99.90
19516;DHT22;9901;47.448;7.692;2023-04-25T01:38:58;7.10;99.90
19516;DHT22;9901;47.448;7.692;2023-04-25T01:41:24;7.20;99.90
19516;DHT22;9901;47.448;7.692;2023-04-25T01:43:54;7.00;99.90
19516;DHT22;9901;47.448;7.692;2023-04-25T01:46:20;7.00;99.90
19516;DHT22;9901;47.448;7.692;2023-04-25T01:48:45;7.00;99.90
19516;DHT22;9901;47.448;7.692;2023-04-25T01:51:23;7.00;99.90
19516;DHT22;9901;47.448;7.692;2023-04-25T01:53:49;6.90;99.90
19516;DHT22;9901;47.448;7.692;2023-04-25T01:56:15;6.80;99.90
19516;DHT22;9901;47.448;7.692;2023-04-25T01:58:46;6.70;99.90
19516;DHT22;9901;47.448;7.692;2023-04-25T02:01:12;6.70;99.90
19516;DHT22;9901;47.448;7.692;2023-04-25T02:03:41;6.60;99.90
19516;DHT22;9901;47.448;7.692;2023-04-25T02:06:07;6.60;99.90
19516;DHT22;9901;47.448;7.692;2023-04-25T02:08:32;6.60;99.90
19516;DHT22;9901;47.448;7.692;2023-04-25T02:10:58;6.50;99.90
19516;DHT22;9901;47.448;7.692;2023-04-25T02:13:24;6.40;99.90
19516;DHT22;9901;47.448;7.692;2023-04-25T02:15:52;6.30;99.90
19516;DHT22;9901;47.448;7.692;2023-04-25T02:18:18;6.40;99.90
19516;DHT22;9901;47.448;7.692;2023-04-25T02:20:44;6.30;99.90
19516;DHT22;9901;47.448;7.692;2023-04-25T02:23:14;6.30;99.90
19516;DHT22;9901;47.448;7.692;2023-04-25T02:25:41;6.20;99.90
19516;DHT22;9901;47.448;7.692;2023-04-25T02:28:09;6.30;99.90
19516;DHT22;9901;47.448;7.692;2023-04-25T02:30:34;6.30;99.90
19516;DHT22;9901;47.448;7.692;2023-04-25T02:33:00;6.30;99.90
19516;DHT22;9901;47.448;7.692;2023-04-25T02:35:26;6.30;99.90
19516;DHT22;9901;47.448;7.692;2023-04-25T02:37:52;6.30;99.90
19516;DHT22;9901;47.448;7.692;2023-04-25T02:40:17;6.20;99.90
19516;DHT22;9901;47.448;7.692;2023-04-25T02:42:43;6.20;99.90
19516;DHT22;9901;47.448;7.692;2023-04-25T02:45:11;6.20;99.90
19516;DHT22;9901;47.448;7.692;2023-04-25T02:47:37;6.20;99.90
19516;DHT22;9901;47.448;7.692;2023-04-25T02:50:03;6.20;99.90
19516;DHT22;9901;47.448;7.692;2023-04-25T02:52:31;6.20;99.90
19516;DHT22;9901;47.448;7.692;2023-04-25T02:54:57;6.20;99.90
19516;DHT22;9901;47.448;7.692;2023-04-25T02:57:25;6.40;99.90
19516;DHT22;9901;47.448;7.692;2023-04-25T02:59:51;6.30;99.90
19516;DHT22;9901;47.448;7.692;2023-04-25T03:02:16;6.30;99.90
19516;DHT22;9901;47.448;7.692;2023-04-25T03:04:42;6.30;99.90
19516;DHT22;9901;47.448;7.692;2023-04-25T03:07:08;6.30;99.90
19516;DHT22;9901;47.448;7.692;2023-04-25T03:09:34;6.60;99.90
19516;DHT22;9901;47.448;7.692;2023-04-25T03:14:27;6.20;99.90
19516;DHT22;9901;47.448;7.692;2023-04-25T03:16:52;6.20;99.90
19516;DHT22;9901;47.448;7.692;2023-04-25T03:19:19;6.20;99.90
19516;DHT22;9901;47.448;7.692;2023-04-25T03:21:45;6.20;99.90
19516;DHT22;9901;47.448;7.692;2023-04-25T03:24:11;6.20;99.90
19516;DHT22;9901;47.448;7.692;2023-04-25T03:26:37;6.20;99.90
19516;DHT22;9901;47.448;7.692;2023-04-25T03:29:05;6.20;99.90
19516;DHT22;9901;47.448;7.692;2023-04-25T03:31:31;6.20;99.90
19516;DHT22;9901;47.448;7.692;2023-04-25T03:34:03;6.30;99.90
19516;DHT22;9901;47.448;7.692;2023-04-25T03:38:59;6.20;99.90
19516;DHT22;9901;47.448;7.692;2023-04-25T03:41:27;6.20;99.90
19516;DHT22;9901;47.448;7.692;2023-04-25T03:43:53;6.30;99.90
19516;DHT22;9901;47.448;7.692;2023-04-25T03:46:19;6.20;99.90
19516;DHT22;9901;47.448;7.692;2023-04-25T03:48:44;6.20;99.90
19516;DHT22;9901;47.448;7.692;2023-04-25T03:51:10;6.70;99.90
19516;DHT22;9901;47.448;7.692;2023-04-25T03:53:35;6.30;99.90
19516;DHT22;9901;47.448;7.692;2023-04-25T03:56:01;6.30;99.90
19516;DHT22;9901;47.448;7.692;2023-04-25T03:58:27;6.20;99.90
19516;DHT22;9901;47.448;7.692;2023-04-25T04:00:52;6.20;99.90
19516;DHT22;9901;47.448;7.692;2023-04-25T04:03:21;6.20;99.90
19516;DHT22;9901;47.448;7.692;2023-04-25T04:06:02;6.20;99.90
19516;DHT22;9901;47.448;7.692;2023-04-25T04:08:29;6.20;99.90
19516;DHT22;9901;47.448;7.692;2023-04-25T04:10:57;6.20;99.90
19516;DHT22;9901;47.448;7.692;2023-04-25T04:13:23;6.20;99.90
19516;DHT22;9901;47.448;7.692;2023-04-25T04:15:49;6.20;99.90
19516;DHT22;9901;47.448;7.692;2023-04-25T04:18:15;6.20;99.90
19516;DHT22;9901;47.448;7.692;2023-04-25T04:20:40;6.20;99.90
19516;DHT22;9901;47.448;7.692;2023-04-25T04:23:06;6.30;99.90
19516;DHT22;9901;47.448;7.692;2023-04-25T04:25:31;6.30;99.90
19516;DHT22;9901;47.448;7.692;2023-04-25T04:27:57;6.40;99.90
19516;DHT22;9901;47.448;7.692;2023-04-25T04:30:27;6.30;99.90
19516;DHT22;9901;47.448;7.692;2023-04-25T04:32:56;6.40;99.90
19516;DHT22;9901;47.448;7.692;2023-04-25T04:35:23;6.40;99.90
19516;DHT22;9901;47.448;7.692;2023-04-25T04:37:49;6.40;99.90
19516;DHT22;9901;47.448;7.692;2023-04-25T04:43:03;6.50;99.90
19516;DHT22;9901;47.448;7.692;2023-04-25T04:45:29;6.50;99.90
19516;DHT22;9901;47.448;7.692;2023-04-25T04:47:54;6.50;99.90
19516;DHT22;9901;47.448;7.692;2023-04-25T04:50:21;6.40;99.90
19516;DHT22;9901;47.448;7.692;2023-04-25T04:52:52;6.50;99.90
19516;DHT22;9901;47.448;7.692;2023-04-25T04:55:19;6.50;99.90
19516;DHT22;9901;47.448;7.692;2023-04-25T05:00:17;6.50;99.90
19516;DHT22;9901;47.448;7.692;2023-04-25T05:02:43;6.60;99.90
19516;DHT22;9901;47.448;7.692;2023-04-25T05:05:09;6.60;99.90
19516;DHT22;9901;47.448;7.692;2023-04-25T05:07:41;6.50;99.90
19516;DHT22;9901;47.448;7.692;2023-04-25T05:10:08;6.40;99.90
19516;DHT22;9901;47.448;7.692;2023-04-25T05:12:47;6.30;99.90
19516;DHT22;9901;47.448;7.692;2023-04-25T05:15:14;6.20;99.90
19516;DHT22;9901;47.448;7.692;2023-04-25T05:17:39;6.20;99.90
19516;DHT22;9901;47.448;7.692;2023-04-25T05:20:19;6.10;99.90
19516;DHT22;9901;47.448;7.692;2023-04-25T05:22:45;6.10;99.90
19516;DHT22;9901;47.448;7.692;2023-04-25T05:25:11;6.10;99.90
19516;DHT22;9901;47.448;7.692;2023-04-25T05:27:36;6.00;99.90
19516;DHT22;9901;47.448;7.692;2023-04-25T05:32:28;6.00;99.90
19516;DHT22;9901;47.448;7.692;2023-04-25T05:34:56;6.00;99.90
19516;DHT22;9901;47.448;7.692;2023-04-25T05:37:28;6.00;99.90
19516;DHT22;9901;47.448;7.692;2023-04-25T05:39:58;6.00;99.90
19516;DHT22;9901;47.448;7.692;2023-04-25T05:42:24;6.00;99.90
19516;DHT22;9901;47.448;7.692;2023-04-25T05:44:49;6.10;99.90
19516;DHT22;9901;47.448;7.692;2023-04-25T05:52:15;6.10;99.90
19516;DHT22;9901;47.448;7.692;2023-04-25T05:54:44;6.20;99.90
19516;DHT22;9901;47.448;7.692;2023-04-25T05:57:22;6.30;99.90
19516;DHT22;9901;47.448;7.692;2023-04-25T05:59:48;6.30;99.90
19516;DHT22;9901;47.448;7.692;2023-04-25T06:02:14;6.40;99.90
19516;DHT22;9901;47.448;7.692;2023-04-25T06:04:39;6.60;99.90
19516;DHT22;9901;47.448;7.692;2023-04-25T06:09:31;6.50;99.90
19516;DHT22;9901;47.448;7.692;2023-04-25T06:12:03;6.60;99.90
19516;DHT22;9901;47.448;7.692;2023-04-25T06:14:30;6.60;99.90
19516;DHT22;9901;47.448;7.692;2023-04-25T06:16:56;6.60;99.90
19516;DHT22;9901;47.448;7.692;2023-04-25T06:19:21;6.60;99.90
19516;DHT22;9901;47.448;7.692;2023-04-25T06:21:47;6.60;99.90
19516;DHT22;9901;47.448;7.692;2023-04-25T06:24:13;6.80;99.90
19516;DHT22;9901;47.448;7.692;2023-04-25T06:26:39;6.60;99.90
19516;DHT22;9901;47.448;7.692;2023-04-25T06:29:08;6.70;99.90
19516;DHT22;9901;47.448;7.692;2023-04-25T06:31:36;6.70;99.90
19516;DHT22;9901;47.448;7.692;2023-04-25T06:34:03;6.60;99.90
19516;DHT22;9901;47.448;7.692;2023-04-25T06:36:29;6.60;99.90
19516;DHT22;9901;47.448;7.692;2023-04-25T06:38:55;6.70;99.90
19516;DHT22;9901;47.448;7.692;2023-04-25T06:41:24;6.70;99.90
19516;DHT22;9901;47.448;7.692;2023-04-25T06:43:49;6.70;99.90
19516;DHT22;9901;47.448;7.692;2023-04-25T06:46:17;6.70;99.90
19516;DHT22;9901;47.448;7.692;2023-04-25T06:48:43;6.70;99.90
19516;DHT22;9901;47.448;7.692;2023-04-25T06:51:21;6.80;99.90
19516;DHT22;9901;47.448;7.692;2023-04-25T06:53:49;6.80;99.90
19516;DHT22;9901;47.448;7.692;2023-04-25T06:56:15;6.90;99.90
19516;DHT22;9901;47.448;7.692;2023-04-25T06:58:44;6.90;99.90
19516;DHT22;9901;47.448;7.692;2023-04-25T07:01:10;6.80;99.90
19516;DHT22;9901;47.448;7.692;2023-04-25T07:03:35;7.00;99.90
19516;DHT22;9901;47.448;7.692;2023-04-25T07:06:02;6.90;99.90
19516;DHT22;9901;47.448;7.692;2023-04-25T07:08:48;7.00;99.90
19516;DHT22;9901;47.448;7.692;2023-04-25T07:11:14;7.00;99.90
19516;DHT22;9901;47.448;7.692;2023-04-25T07:13:42;7.10;99.90
19516;DHT22;9901;47.448;7.692;2023-04-25T07:16:08;7.10;99.90
19516;DHT22;9901;47.448;7.692;2023-04-25T07:18:33;7.10;99.90
19516;DHT22;9901;47.448;7.692;2023-04-25T07:21:02;7.10;99.90
19516;DHT22;9901;47.448;7.692;2023-04-25T07:23:28;7.00;99.90
19516;DHT22;9901;47.448;7.692;2023-04-25T07:25:54;7.10;99.90
19516;DHT22;9901;47.448;7.692;2023-04-25T07:28:26;7.00;99.90
19516;DHT22;9901;47.448;7.692;2023-04-25T07:30:51;7.00;99.90
19516;DHT22;9901;47.448;7.692;2023-04-25T07:33:17;7.00;99.90
19516;DHT22;9901;47.448;7.692;2023-04-25T07:35:45;7.00;99.90
19516;DHT22;9901;47.448;7.692;2023-04-25T07:38:11;7.00;99.90
19516;DHT22;9901;47.448;7.692;2023-04-25T07:40:37;7.00;99.90
19516;DHT22;9901;47.448;7.692;2023-04-25T07:43:02;7.10;99.90
19516;DHT22;9901;47.448;7.692;2023-04-25T07:45:28;7.10;99.90
19516;DHT22;9901;47.448;7.692;2023-04-25T07:47:54;7.20;99.90
19516;DHT22;9901;47.448;7.692;2023-04-25T07:50:26;7.20;99.90
19516;DHT22;9901;47.448;7.692;2023-04-25T07:52:54;7.20;99.90
19516;DHT22;9901;47.448;7.692;2023-04-25T07:55:22;7.00;99.90
19516;DHT22;9901;47.448;7.692;2023-04-25T07:57:48;7.10;99.90
19516;DHT22;9901;47.448;7.692;2023-04-25T08:00:14;7.10;99.90
19516;DHT22;9901;47.448;7.692;2023-04-25T08:02:40;7.10;99.90
19516;DHT22;9901;47.448;7.692;2023-04-25T08:05:06;7.10;99.90
19516;DHT22;9901;47.448;7.692;2023-04-25T08:07:38;7.10;99.90
19516;DHT22;9901;47.448;7.692;2023-04-25T08:10:05;7.10;99.90
19516;DHT22;9901;47.448;7.692;2023-04-25T08:15:03;7.10;99.90
19516;DHT22;9901;47.448;7.692;2023-04-25T08:17:29;7.20;99.90
19516;DHT22;9901;47.448;7.692;2023-04-25T08:22:31;7.50;99.90
19516;DHT22;9901;47.448;7.692;2023-04-25T08:25:04;7.60;99.90
19516;DHT22;9901;47.448;7.692;2023-04-25T08:27:30;7.70;99.90
19516;DHT22;9901;47.448;7.692;2023-04-25T08:29:55;7.80;99.90
19516;DHT22;9901;47.448;7.692;2023-04-25T08:32:24;7.90;99.90
19516;DHT22;9901;47.448;7.692;2023-04-25T08:34:53;8.00;99.90
19516;DHT22;9901;47.448;7.692;2023-04-25T08:37:21;7.80;99.90
19516;DHT22;9901;47.448;7.692;2023-04-25T08:39:46;7.90;99.90
19516;DHT22;9901;47.448;7.692;2023-04-25T08:42:14;7.90;99.90
19516;DHT22;9901;47.448;7.692;2023-04-25T08:44:40;7.90;99.90
19516;DHT22;9901;47.448;7.692;2023-04-25T08:47:06;7.90;99.90
19516;DHT22;9901;47.448;7.692;2023-04-25T08:49:40;7.90;99.90
19516;DHT22;9901;47.448;7.692;2023-04-25T08:52:14;7.90;99.90
19516;DHT22;9901;47.448;7.692;2023-04-25T08:54:48;7.70;99.90
19516;DHT22;9901;47.448;7.692;2023-04-25T08:57:18;7.70;99.90
19516;DHT22;9901;47.448;7.692;2023-04-25T08:59:47;7.60;99.90
19516;DHT22;9901;47.448;7.692;2023-04-25T09:02:15;7.60;99.90
19516;DHT22;9901;47.448;7.692;2023-04-25T09:04:45;7.60;99.90
19516;DHT22;9901;47.448;7.692;2023-04-25T09:07:13;7.70;99.90
19516;DHT22;9901;47.448;7.692;2023-04-25T09:09:41;7.80;99.90
19516;DHT22;9901;47.448;7.692;2023-04-25T09:12:07;8.00;99.90
19516;DHT22;9901;47.448;7.692;2023-04-25T09:14:33;8.30;99.90
19516;DHT22;9901;47.448;7.692;2023-04-25T09:17:05;8.40;99.90
19516;DHT22;9901;47.448;7.692;2023-04-25T09:19:34;8.60;99.90
19516;DHT22;9901;47.448;7.692;2023-04-25T09:22:06;8.70;99.90
19516;DHT22;9901;47.448;7.692;2023-04-25T09:24:44;8.80;99.90
19516;DHT22;9901;47.448;7.692;2023-04-25T09:27:13;8.70;99.90
19516;DHT22;9901;47.448;7.692;2023-04-25T09:29:43;8.70;99.90
19516;DHT22;9901;47.448;7.692;2023-04-25T09:37:29;9.00;99.90
19516;DHT22;9901;47.448;7.692;2023-04-25T09:39:59;9.10;99.90
19516;DHT22;9901;47.448;7.692;2023-04-25T09:42:26;9.00;99.90
19516;DHT22;9901;47.448;7.692;2023-04-25T09:44:57;8.80;99.90
19516;DHT22;9901;47.448;7.692;2023-04-25T09:47:24;8.60;99.90
19516;DHT22;9901;47.448;7.692;2023-04-25T09:49:53;8.60;99.90
19516;DHT22;9901;47.448;7.692;2023-04-25T09:52:23;8.60;99.90
19516;DHT22;9901;47.448;7.692;2023-04-25T09:54:51;8.40;99.90
19516;DHT22;9901;47.448;7.692;2023-04-25T09:57:18;8.50;99.90
19516;DHT22;9901;47.448;7.692;2023-04-25T09:59:52;8.50;99.90
19516;DHT22;9901;47.448;7.692;2023-04-25T10:02:25;8.60;99.90
19516;DHT22;9901;47.448;7.692;2023-04-25T10:04:53;8.60;99.90
19516;DHT22;9901;47.448;7.692;2023-04-25T10:07:26;8.70;99.90
19516;DHT22;9901;47.448;7.692;2023-04-25T10:10:01;8.80;99.90
19516;DHT22;9901;47.448;7.692;2023-04-25T10:12:30;8.70;99.90
19516;DHT22;9901;47.448;7.692;2023-04-25T10:15:04;8.80;99.90
19516;DHT22;9901;47.448;7.692;2023-04-25T10:17:34;8.90;99.90
19516;DHT22;9901;47.448;7.692;2023-04-25T10:20:02;8.80;99.90
19516;DHT22;9901;47.448;7.692;2023-04-25T10:22:36;8.90;99.90
19516;DHT22;9901;47.448;7.692;2023-04-25T10:25:10;9.10;99.90
19516;DHT22;9901;47.448;7.692;2023-04-25T10:27:36;9.10;99.90
19516;DHT22;9901;47.448;7.692;2023-04-25T10:30:09;9.00;99.90
19516;DHT22;9901;47.448;7.692;2023-04-25T10:32:41;9.20;99.90
19516;DHT22;9901;47.448;7.692;2023-04-25T10:35:30;9.10;99.90
19516;DHT22;9901;47.448;7.692;2023-04-25T10:37:57;9.00;99.90
19516;DHT22;9901;47.448;7.692;2023-04-25T10:40:24;9.00;99.90
19516;DHT22;9901;47.448;7.692;2023-04-25T10:42:52;9.20;99.90
19516;DHT22;9901;47.448;7.692;2023-04-25T10:45:21;9.10;99.90
19516;DHT22;9901;47.448;7.692;2023-04-25T10:47:46;9.40;99.90
19516;DHT22;9901;47.448;7.692;2023-04-25T10:50:15;9.80;99.90
19516;DHT22;9901;47.448;7.692;2023-04-25T10:52:42;10.60;99.90
19516;DHT22;9901;47.448;7.692;2023-04-25T10:55:10;11.00;99.90
19516;DHT22;9901;47.448;7.692;2023-04-25T10:57:44;11.50;99.90
19516;DHT22;9901;47.448;7.692;2023-04-25T11:00:18;11.90;99.90
19516;DHT22;9901;47.448;7.692;2023-04-25T11:03:15;11.20;99.90
19516;DHT22;9901;47.448;7.692;2023-04-25T11:05:44;10.70;99.90
19516;DHT22;9901;47.448;7.692;2023-04-25T11:08:33;10.60;99.90
19516;DHT22;9901;47.448;7.692;2023-04-25T11:11:02;10.90;99.90
19516;DHT22;9901;47.448;7.692;2023-04-25T11:13:29;11.40;99.90
19516;DHT22;9901;47.448;7.692;2023-04-25T11:15:57;11.40;99.90
19516;DHT22;9901;47.448;7.692;2023-04-25T11:18:26;11.20;99.90
19516;DHT22;9901;47.448;7.692;2023-04-25T11:20:55;11.20;99.90
19516;DHT22;9901;47.448;7.692;2023-04-25T11:23:20;11.10;99.90
19516;DHT22;9901;47.448;7.692;2023-04-25T11:25:49;11.10;99.90
19516;DHT22;9901;47.448;7.692;2023-04-25T11:28:24;11.10;99.90
19516;DHT22;9901;47.448;7.692;2023-04-25T11:30:50;11.20;99.90
19516;DHT22;9901;47.448;7.692;2023-04-25T11:33:16;11.30;99.90
19516;DHT22;9901;47.448;7.692;2023-04-25T11:35:54;11.30;99.90
19516;DHT22;9901;47.448;7.692;2023-04-25T11:38:27;11.00;99.90
19516;DHT22;9901;47.448;7.692;2023-04-25T11:40:53;10.40;99.90
19516;DHT22;9901;47.448;7.692;2023-04-25T11:43:22;10.00;99.90
19516;DHT22;9901;47.448;7.692;2023-04-25T11:45:49;9.70;99.90
19516;DHT22;9901;47.448;7.692;2023-04-25T11:48:19;9.50;99.90
19516;DHT22;9901;47.448;7.692;2023-04-25T11:50:45;9.30;99.90
19516;DHT22;9901;47.448;7.692;2023-04-25T11:53:11;9.40;99.90
19516;DHT22;9901;47.448;7.692;2023-04-25T11:55:37;9.50;99.90
19516;DHT22;9901;47.448;7.692;2023-04-25T11:58:04;10.20;99.90
19516;DHT22;9901;47.448;7.692;2023-04-25T12:00:33;11.10;99.90
19516;DHT22;9901;47.448;7.692;2023-04-25T12:02:58;12.00;99.90
19516;DHT22;9901;47.448;7.692;2023-04-25T12:05:27;13.00;99.90
19516;DHT22;9901;47.448;7.692;2023-04-25T12:07:53;13.40;99.90
19516;DHT22;9901;47.448;7.692;2023-04-25T12:10:20;13.60;99.90
19516;DHT22;9901;47.448;7.692;2023-04-25T12:13:24;13.90;99.90
19516;DHT22;9901;47.448;7.692;2023-04-25T12:15:50;14.00;99.90
19516;DHT22;9901;47.448;7.692;2023-04-25T12:18:24;14.20;99.90
19516;DHT22;9901;47.448;7.692;2023-04-25T12:20:53;14.50;99.90
19516;DHT22;9901;47.448;7.692;2023-04-25T12:23:28;14.80;99.90
19516;DHT22;9901;47.448;7.692;2023-04-25T12:26:01;14.80;99.90
19516;DHT22;9901;47.448;7.692;2023-04-25T12:28:32;15.00;99.90
19516;DHT22;9901;47.448;7.692;2023-04-25T12:31:03;15.30;99.90
19516;DHT22;9901;47.448;7.692;2023-04-25T12:33:37;15.80;99.90
19516;DHT22;9901;47.448;7.692;2023-04-25T12:36:04;16.40;99.90
19516;DHT22;9901;47.448;7.692;2023-04-25T12:38:39;16.80;99.90
19516;DHT22;9901;47.448;7.692;2023-04-25T12:41:05;17.10;99.90
19516;DHT22;9901;47.448;7.692;2023-04-25T12:43:39;17.20;99.90
19516;DHT22;9901;47.448;7.692;2023-04-25T12:46:07;16.70;99.90
19516;DHT22;9901;47.448;7.692;2023-04-25T12:48:35;15.90;99.90
19516;DHT22;9901;47.448;7.692;2023-04-25T12:51:00;15.50;99.90
19516;DHT22;9901;47.448;7.692;2023-04-25T12:53:28;15.20;99.90
19516;DHT22;9901;47.448;7.692;2023-04-25T12:55:59;14.90;99.90
19516;DHT22;9901;47.448;7.692;2023-04-25T12:58:28;14.60;99.90
19516;DHT22;9901;47.448;7.692;2023-04-25T13:00:56;14.10;99.90
19516;DHT22;9901;47.448;7.692;2023-04-25T13:03:21;13.80;99.90
19516;DHT22;9901;47.448;7.692;2023-04-25T13:05:47;13.10;99.90
19516;DHT22;9901;47.448;7.692;2023-04-25T13:08:22;12.20;99.90
19516;DHT22;9901;47.448;7.692;2023-04-25T13:10:48;11.20;99.90
19516;DHT22;9901;47.448;7.692;2023-04-25T13:13:13;10.50;99.90
19516;DHT22;9901;47.448;7.692;2023-04-25T13:15:39;10.10;99.90
19516;DHT22;9901;47.448;7.692;2023-04-25T13:18:05;9.80;99.90
19516;DHT22;9901;47.448;7.692;2023-04-25T13:20:40;9.50;99.90
19516;DHT22;9901;47.448;7.692;2023-04-25T13:23:05;9.40;99.90
19516;DHT22;9901;47.448;7.692;2023-04-25T13:25:31;9.40;99.90
19516;DHT22;9901;47.448;7.692;2023-04-25T13:28:15;9.30;99.90
19516;DHT22;9901;47.448;7.692;2023-04-25T13:30:41;9.40;99.90
19516;DHT22;9901;47.448;7.692;2023-04-25T13:33:07;9.30;99.90
19516;DHT22;9901;47.448;7.692;2023-04-25T13:35:34;9.30;99.90
19516;DHT22;9901;47.448;7.692;2023-04-25T13:38:01;9.10;99.90
19516;DHT22;9901;47.448;7.692;2023-04-25T13:40:27;9.20;99.90
19516;DHT22;9901;47.448;7.692;2023-04-25T13:42:53;9.30;99.90
19516;DHT22;9901;47.448;7.692;2023-04-25T13:45:21;9.30;99.90
19516;DHT22;9901;47.448;7.692;2023-04-25T13:47:47;9.00;99.90
19516;DHT22;9901;47.448;7.692;2023-04-25T13:50:18;9.10;99.90
19516;DHT22;9901;47.448;7.692;2023-04-25T13:52:55;9.10;99.90
19516;DHT22;9901;47.448;7.692;2023-04-25T13:55:20;8.90;99.90
19516;DHT22;9901;47.448;7.692;2023-04-25T16:26:26;11.20;99.90
19516;DHT22;9901;47.448;7.692;2023-04-25T16:53:06;10.80;99.90
19516;DHT22;9901;47.448;7.692;2023-04-25T16:55:43;10.80;99.90
19516;DHT22;9901;47.448;7.692;2023-04-25T17:09:26;10.80;99.90
19516;DHT22;9901;47.448;7.692;2023-04-25T17:23:09;10.70;99.90
19516;DHT22;9901;47.448;7.692;2023-04-25T17:30:14;10.50;99.90
19516;DHT22;9901;47.448;7.692;2023-04-25T17:32:41;10.40;99.90
19516;DHT22;9901;47.448;7.692;2023-04-25T17:48:27;10.30;99.90
19516;DHT22;9901;47.448;7.692;2023-04-25T17:54:40;10.20;99.90
19516;DHT22;9901;47.448;7.692;2023-04-25T17:57:06;10.20;99.90
19516;DHT22;9901;47.448;7.692;2023-04-25T17:59:32;10.20;99.90
19516;DHT22;9901;47.448;7.692;2023-04-25T18:01:58;10.20;99.90
19516;DHT22;9901;47.448;7.692;2023-04-25T18:04:25;10.20;99.90
19516;DHT22;9901;47.448;7.692;2023-04-25T18:06:50;10.10;99.90
19516;DHT22;9901;47.448;7.692;2023-04-25T18:09:16;10.10;99.90
19516;DHT22;9901;47.448;7.692;2023-04-25T18:11:43;10.10;99.90
19516;DHT22;9901;47.448;7.692;2023-04-25T18:14:10;10.10;99.90
19516;DHT22;9901;47.448;7.692;2023-04-25T18:16:48;10.00;99.90
19516;DHT22;9901;47.448;7.692;2023-04-25T18:19:14;9.90;99.90
19516;DHT22;9901;47.448;7.692;2023-04-25T18:21:44;9.80;99.90
19516;DHT22;9901;47.448;7.692;2023-04-25T18:24:14;9.80;99.90
19516;DHT22;9901;47.448;7.692;2023-04-25T18:26:52;9.80;99.90
19516;DHT22;9901;47.448;7.692;2023-04-25T18:29:19;9.60;99.90
19516;DHT22;9901;47.448;7.692;2023-04-25T18:31:45;9.80;99.90
19516;DHT22;9901;47.448;7.692;2023-04-25T18:34:11;9.80;99.90
19516;DHT22;9901;47.448;7.692;2023-04-25T18:36:38;9.70;99.90
19516;DHT22;9901;47.448;7.692;2023-04-25T18:39:05;9.50;99.90
19516;DHT22;9901;47.448;7.692;2023-04-25T18:41:35;9.50;99.90
19516;DHT22;9901;47.448;7.692;2023-04-25T18:44:02;9.50;99.90
19516;DHT22;9901;47.448;7.692;2023-04-25T18:46:33;9.50;99.90
19516;DHT22;9901;47.448;7.692;2023-04-25T18:48:59;9.60;99.90
19516;DHT22;9901;47.448;7.692;2023-04-25T18:51:25;9.40;99.90
19516;DHT22;9901;47.448;7.692;2023-04-25T18:53:56;9.40;99.90
19516;DHT22;9901;47.448;7.692;2023-04-25T18:56:23;9.50;99.90
19516;DHT22;9901;47.448;7.692;2023-04-25T18:58:50;9.40;99.90
19516;DHT22;9901;47.448;7.692;2023-04-25T19:01:16;9.40;99.90
19516;DHT22;9901;47.448;7.692;2023-04-25T19:03:48;9.30;99.90
19516;DHT22;9901;47.448;7.692;2023-04-25T19:06:24;9.20;99.90
19516;DHT22;9901;47.448;7.692;2023-04-25T19:08:52;9.30;99.90
19516;DHT22;9901;47.448;7.692;2023-04-25T19:11:20;9.20;99.90
19516;DHT22;9901;47.448;7.692;2023-04-25T19:13:49;9.10;99.90
19516;DHT22;9901;47.448;7.692;2023-04-25T19:16:15;9.00;99.90
19516;DHT22;9901;47.448;7.692;2023-04-25T19:18:45;9.00;99.90
19516;DHT22;9901;47.448;7.692;2023-04-25T19:21:11;9.10;99.90
19516;DHT22;9901;47.448;7.692;2023-04-25T19:23:37;9.00;99.90
19516;DHT22;9901;47.448;7.692;2023-04-25T19:26:02;8.90;99.90
19516;DHT22;9901;47.448;7.692;2023-04-25T19:28:29;8.90;99.90
19516;DHT22;9901;47.448;7.692;2023-04-25T19:30:55;8.80;99.90
19516;DHT22;9901;47.448;7.692;2023-04-25T19:33:21;8.90;99.90
19516;DHT22;9901;47.448;7.692;2023-04-25T19:35:47;8.90;99.90
19516;DHT22;9901;47.448;7.692;2023-04-25T19:38:13;8.80;99.90
19516;DHT22;9901;47.448;7.692;2023-04-25T19:40:39;8.90;99.90
19516;DHT22;9901;47.448;7.692;2023-04-25T19:43:05;8.80;99.90
19516;DHT22;9901;47.448;7.692;2023-04-25T19:45:32;8.80;99.90
19516;DHT22;9901;47.448;7.692;2023-04-25T19:47:59;8.90;99.90
19516;DHT22;9901;47.448;7.692;2023-04-25T19:50:25;8.80;99.90
19516;DHT22;9901;47.448;7.692;2023-04-25T19:52:51;8.90;99.90
19516;DHT22;9901;47.448;7.692;2023-04-25T19:55:17;8.80;99.90
19516;DHT22;9901;47.448;7.692;2023-04-25T19:57:43;8.80;99.90
19516;DHT22;9901;47.448;7.692;2023-04-25T20:00:13;8.80;99.90
19516;DHT22;9901;47.448;7.692;2023-04-25T20:02:39;8.80;99.90
19516;DHT22;9901;47.448;7.692;2023-04-25T20:05:09;8.90;99.90
19516;DHT22;9901;47.448;7.692;2023-04-25T20:07:34;8.80;99.90
19516;DHT22;9901;47.448;7.692;2023-04-25T20:10:00;8.70;99.90
19516;DHT22;9901;47.448;7.692;2023-04-25T20:12:26;8.80;99.90